New Lexington, Ohio
Current Conditions -  °F | °C
As of 4:53 PM on Monday 20 Oct 2014 (Local Time) from KZZV Reporting Station
Overcast Overcast  
Wind Chill: 58°   Ceiling: 6000
Heat Index: 58°   Visibility: 10mi
Dew Point: 43°   Wind: 9mph
Humidity: 58%   Direction: 190°S
Pressure: 29.87"   Gusts: NA
Location:  39.71°N, 82.21°W
Report Text: KZZV 202053Z AUTO 19008KT 10SM BKN060 OVC100 14/06 A2987 RMK AO2 SLP117 T01440061 56017
Loading
Personal Weather Stations






























Interactive Weather Map
Tropical Storm Tracking
New forecast layout! Learn more

10-Day Weather Forecast

Advertisements
Track Severe Weather on mobile